sensor_id;sensor_type;location;lat;lon;timestamp;temperature;humidity
45969;DHT22;31676;40.444;-3.668;2023-04-03T00:01:55;26.50;73.30
45969;DHT22;31676;40.444;-3.668;2023-04-03T00:04:21;26.50;73.30
45969;DHT22;31676;40.444;-3.668;2023-04-03T00:06:46;26.50;73.30
45969;DHT22;31676;40.444;-3.668;2023-04-03T00:09:12;26.50;73.30
45969;DHT22;31676;40.444;-3.668;2023-04-03T00:11:38;26.50;73.30
45969;DHT22;31676;40.444;-3.668;2023-04-03T00:14:03;26.50;73.30
45969;DHT22;31676;40.444;-3.668;2023-04-03T00:16:29;26.50;73.30
45969;DHT22;31676;40.444;-3.668;2023-04-03T00:18:55;26.50;73.30
45969;DHT22;31676;40.444;-3.668;2023-04-03T00:21:21;26.50;73.30
45969;DHT22;31676;40.444;-3.668;2023-04-03T00:23:46;26.50;73.30
45969;DHT22;31676;40.444;-3.668;2023-04-03T00:26:12;26.50;73.30
45969;DHT22;31676;40.444;-3.668;2023-04-03T00:28:38;26.50;73.30
45969;DHT22;31676;40.444;-3.668;2023-04-03T00:31:03;26.50;73.30
45969;DHT22;31676;40.444;-3.668;2023-04-03T00:33:29;26.50;73.30
45969;DHT22;31676;40.444;-3.668;2023-04-03T00:35:55;26.50;74.00
45969;DHT22;31676;40.444;-3.668;2023-04-03T00:38:21;26.50;73.30
45969;DHT22;31676;40.444;-3.668;2023-04-03T00:40:47;26.50;73.30
45969;DHT22;31676;40.444;-3.668;2023-04-03T00:43:23;26.50;73.30
45969;DHT22;31676;40.444;-3.668;2023-04-03T00:45:50;26.50;73.30
45969;DHT22;31676;40.444;-3.668;2023-04-03T00:48:26;26.50;73.30
45969;DHT22;31676;40.444;-3.668;2023-04-03T00:50:53;26.50;73.30
45969;DHT22;31676;40.444;-3.668;2023-04-03T00:53:24;26.50;73.30
45969;DHT22;31676;40.444;-3.668;2023-04-03T00:55:51;26.50;73.40
45969;DHT22;31676;40.444;-3.668;2023-04-03T00:58:18;26.40;73.30
45969;DHT22;31676;40.444;-3.668;2023-04-03T01:00:46;26.50;73.40
45969;DHT22;31676;40.444;-3.668;2023-04-03T01:03:14;26.40;73.30
45969;DHT22;31676;40.444;-3.668;2023-04-03T01:05:40;26.50;73.30
45969;DHT22;31676;40.444;-3.668;2023-04-03T01:08:05;26.40;73.30
45969;DHT22;31676;40.444;-3.668;2023-04-03T01:10:31;26.40;73.30
45969;DHT22;31676;40.444;-3.668;2023-04-03T01:12:57;26.40;73.30
45969;DHT22;31676;40.444;-3.668;2023-04-03T01:15:25;26.40;73.30
45969;DHT22;31676;40.444;-3.668;2023-04-03T01:17:56;26.40;73.30
45969;DHT22;31676;40.444;-3.668;2023-04-03T01:25:36;26.40;73.30
45969;DHT22;31676;40.444;-3.668;2023-04-03T01:28:03;26.40;73.30
45969;DHT22;31676;40.444;-3.668;2023-04-03T01:30:36;26.40;73.30
45969;DHT22;31676;40.444;-3.668;2023-04-03T01:33:05;26.40;73.30
45969;DHT22;31676;40.444;-3.668;2023-04-03T01:35:31;26.40;73.30
45969;DHT22;31676;40.444;-3.668;2023-04-03T01:37:56;26.40;73.30
45969;DHT22;31676;40.444;-3.668;2023-04-03T01:40:22;26.40;73.30
45969;DHT22;31676;40.444;-3.668;2023-04-03T01:42:48;26.40;73.30
45969;DHT22;31676;40.444;-3.668;2023-04-03T01:45:13;26.40;73.40
45969;DHT22;31676;40.444;-3.668;2023-04-03T01:47:40;26.40;73.30
45969;DHT22;31676;40.444;-3.668;2023-04-03T01:50:05;26.40;73.30
45969;DHT22;31676;40.444;-3.668;2023-04-03T01:52:31;26.40;73.30
45969;DHT22;31676;40.444;-3.668;2023-04-03T01:54:57;26.40;73.30
45969;DHT22;31676;40.444;-3.668;2023-04-03T01:57:22;26.40;73.30
45969;DHT22;31676;40.444;-3.668;2023-04-03T01:59:48;26.40;73.30
45969;DHT22;31676;40.444;-3.668;2023-04-03T02:02:14;26.40;73.30
45969;DHT22;31676;40.444;-3.668;2023-04-03T02:04:40;26.40;73.40
45969;DHT22;31676;40.444;-3.668;2023-04-03T02:07:06;26.40;73.30
45969;DHT22;31676;40.444;-3.668;2023-04-03T02:09:32;26.30;73.30
45969;DHT22;31676;40.444;-3.668;2023-04-03T02:11:57;26.30;73.20
45969;DHT22;31676;40.444;-3.668;2023-04-03T02:14:23;26.30;73.30
45969;DHT22;31676;40.444;-3.668;2023-04-03T02:16:49;26.30;73.30
45969;DHT22;31676;40.444;-3.668;2023-04-03T02:19:15;26.30;73.30
45969;DHT22;31676;40.444;-3.668;2023-04-03T02:21:41;26.30;73.30
45969;DHT22;31676;40.444;-3.668;2023-04-03T02:24:07;26.30;73.30
45969;DHT22;31676;40.444;-3.668;2023-04-03T02:26:32;26.30;73.20
45969;DHT22;31676;40.444;-3.668;2023-04-03T02:28:58;26.30;73.90
45969;DHT22;31676;40.444;-3.668;2023-04-03T02:31:24;26.30;73.20
45969;DHT22;31676;40.444;-3.668;2023-04-03T02:33:49;26.30;73.30
45969;DHT22;31676;40.444;-3.668;2023-04-03T02:36:15;26.30;73.30
45969;DHT22;31676;40.444;-3.668;2023-04-03T02:38:41;26.30;73.30
45969;DHT22;31676;40.444;-3.668;2023-04-03T02:41:07;26.30;73.30
45969;DHT22;31676;40.444;-3.668;2023-04-03T02:43:33;26.30;73.30
45969;DHT22;31676;40.444;-3.668;2023-04-03T02:45:59;26.30;73.30
45969;DHT22;31676;40.444;-3.668;2023-04-03T02:48:25;26.30;73.30
45969;DHT22;31676;40.444;-3.668;2023-04-03T02:50:51;26.30;73.30
45969;DHT22;31676;40.444;-3.668;2023-04-03T02:53:17;26.30;73.20
45969;DHT22;31676;40.444;-3.668;2023-04-03T02:55:43;26.30;73.30
45969;DHT22;31676;40.444;-3.668;2023-04-03T02:58:09;26.30;73.30
45969;DHT22;31676;40.444;-3.668;2023-04-03T03:00:35;26.30;73.30
45969;DHT22;31676;40.444;-3.668;2023-04-03T03:03:00;26.30;73.20
45969;DHT22;31676;40.444;-3.668;2023-04-03T03:05:27;26.30;73.20
45969;DHT22;31676;40.444;-3.668;2023-04-03T03:07:53;26.30;73.30
45969;DHT22;31676;40.444;-3.668;2023-04-03T03:10:18;26.30;73.30
45969;DHT22;31676;40.444;-3.668;2023-04-03T03:12:44;26.30;73.20
45969;DHT22;31676;40.444;-3.668;2023-04-03T03:15:10;26.30;73.20
45969;DHT22;31676;40.444;-3.668;2023-04-03T03:17:36;26.20;73.20
45969;DHT22;31676;40.444;-3.668;2023-04-03T03:20:02;26.30;73.30
45969;DHT22;31676;40.444;-3.668;2023-04-03T03:22:29;26.20;73.20
45969;DHT22;31676;40.444;-3.668;2023-04-03T03:24:54;26.20;73.20
45969;DHT22;31676;40.444;-3.668;2023-04-03T03:27:20;26.20;73.20
45969;DHT22;31676;40.444;-3.668;2023-04-03T03:29:46;26.20;73.20
45969;DHT22;31676;40.444;-3.668;2023-04-03T03:32:12;26.20;73.20
45969;DHT22;31676;40.444;-3.668;2023-04-03T03:34:37;26.20;73.20
45969;DHT22;31676;40.444;-3.668;2023-04-03T03:37:03;26.20;73.20
45969;DHT22;31676;40.444;-3.668;2023-04-03T03:39:29;26.20;73.20
45969;DHT22;31676;40.444;-3.668;2023-04-03T03:41:55;26.20;73.20
45969;DHT22;31676;40.444;-3.668;2023-04-03T03:44:22;26.20;73.20
45969;DHT22;31676;40.444;-3.668;2023-04-03T03:46:47;26.20;73.20
45969;DHT22;31676;40.444;-3.668;2023-04-03T03:49:13;26.20;73.20
45969;DHT22;31676;40.444;-3.668;2023-04-03T03:51:39;26.20;73.10
45969;DHT22;31676;40.444;-3.668;2023-04-03T03:54:05;26.20;73.20
45969;DHT22;31676;40.444;-3.668;2023-04-03T03:56:31;26.10;73.10
45969;DHT22;31676;40.444;-3.668;2023-04-03T03:58:57;26.20;73.20
45969;DHT22;31676;40.444;-3.668;2023-04-03T04:01:23;26.20;73.80
45969;DHT22;31676;40.444;-3.668;2023-04-03T04:03:49;26.20;73.20
45969;DHT22;31676;40.444;-3.668;2023-04-03T04:06:15;26.20;73.10
45969;DHT22;31676;40.444;-3.668;2023-04-03T04:08:41;26.20;73.20
45969;DHT22;31676;40.444;-3.668;2023-04-03T04:11:07;26.20;73.20
45969;DHT22;31676;40.444;-3.668;2023-04-03T04:13:33;26.20;73.20
45969;DHT22;31676;40.444;-3.668;2023-04-03T04:15:58;26.20;73.20
45969;DHT22;31676;40.444;-3.668;2023-04-03T04:18:24;26.10;73.10
45969;DHT22;31676;40.444;-3.668;2023-04-03T04:20:50;26.10;73.10
45969;DHT22;31676;40.444;-3.668;2023-04-03T04:23:16;26.10;73.10
45969;DHT22;31676;40.444;-3.668;2023-04-03T04:25:43;26.20;73.20
45969;DHT22;31676;40.444;-3.668;2023-04-03T04:28:09;26.10;73.10
45969;DHT22;31676;40.444;-3.668;2023-04-03T04:30:35;26.10;73.10
45969;DHT22;31676;40.444;-3.668;2023-04-03T04:33:00;26.10;73.10
45969;DHT22;31676;40.444;-3.668;2023-04-03T04:35:26;26.10;73.10
45969;DHT22;31676;40.444;-3.668;2023-04-03T04:37:52;26.10;73.10
45969;DHT22;31676;40.444;-3.668;2023-04-03T04:40:18;26.10;73.10
45969;DHT22;31676;40.444;-3.668;2023-04-03T04:42:43;26.20;73.10
45969;DHT22;31676;40.444;-3.668;2023-04-03T04:45:09;26.10;73.10
45969;DHT22;31676;40.444;-3.668;2023-04-03T04:47:35;26.10;73.10
45969;DHT22;31676;40.444;-3.668;2023-04-03T04:50:01;26.10;73.00
45969;DHT22;31676;40.444;-3.668;2023-04-03T04:52:26;26.10;73.10
45969;DHT22;31676;40.444;-3.668;2023-04-03T04:54:52;26.10;73.10
45969;DHT22;31676;40.444;-3.668;2023-04-03T04:57:18;26.10;73.10
45969;DHT22;31676;40.444;-3.668;2023-04-03T04:59:43;26.10;73.10
45969;DHT22;31676;40.444;-3.668;2023-04-03T05:02:09;26.10;73.10
45969;DHT22;31676;40.444;-3.668;2023-04-03T05:04:35;26.10;73.10
45969;DHT22;31676;40.444;-3.668;2023-04-03T05:07:00;26.10;73.10
45969;DHT22;31676;40.444;-3.668;2023-04-03T05:09:26;26.10;73.00
45969;DHT22;31676;40.444;-3.668;2023-04-03T05:11:52;26.10;73.10
45969;DHT22;31676;40.444;-3.668;2023-04-03T05:14:17;26.10;73.00
45969;DHT22;31676;40.444;-3.668;2023-04-03T05:16:43;26.10;73.10
45969;DHT22;31676;40.444;-3.668;2023-04-03T05:19:09;26.10;73.00
45969;DHT22;31676;40.444;-3.668;2023-04-03T05:21:35;26.10;73.10
45969;DHT22;31676;40.444;-3.668;2023-04-03T05:24:01;26.00;73.00
45969;DHT22;31676;40.444;-3.668;2023-04-03T05:26:29;26.10;73.70
45969;DHT22;31676;40.444;-3.668;2023-04-03T05:28:55;26.00;73.00
45969;DHT22;31676;40.444;-3.668;2023-04-03T05:31:20;26.00;72.90
45969;DHT22;31676;40.444;-3.668;2023-04-03T05:33:46;26.00;72.90
45969;DHT22;31676;40.444;-3.668;2023-04-03T05:36:12;26.00;72.90
45969;DHT22;31676;40.444;-3.668;2023-04-03T05:38:38;26.00;73.00
45969;DHT22;31676;40.444;-3.668;2023-04-03T05:41:03;26.00;73.00
45969;DHT22;31676;40.444;-3.668;2023-04-03T05:43:29;26.00;72.90
45969;DHT22;31676;40.444;-3.668;2023-04-03T05:45:55;26.00;72.90
45969;DHT22;31676;40.444;-3.668;2023-04-03T05:48:21;26.00;72.90
45969;DHT22;31676;40.444;-3.668;2023-04-03T05:50:46;26.00;72.90
45969;DHT22;31676;40.444;-3.668;2023-04-03T05:53:17;26.00;72.90
45969;DHT22;31676;40.444;-3.668;2023-04-03T05:55:43;26.00;73.00
45969;DHT22;31676;40.444;-3.668;2023-04-03T05:58:09;26.00;73.00
45969;DHT22;31676;40.444;-3.668;2023-04-03T06:00:35;26.00;72.90
45969;DHT22;31676;40.444;-3.668;2023-04-03T06:03:00;26.00;72.90
45969;DHT22;31676;40.444;-3.668;2023-04-03T06:05:26;26.00;72.90
45969;DHT22;31676;40.444;-3.668;2023-04-03T06:07:52;25.90;72.90
45969;DHT22;31676;40.444;-3.668;2023-04-03T06:10:17;25.90;72.90
45969;DHT22;31676;40.444;-3.668;2023-04-03T06:12:43;25.90;72.80
45969;DHT22;31676;40.444;-3.668;2023-04-03T06:15:09;25.90;72.90
45969;DHT22;31676;40.444;-3.668;2023-04-03T06:17:36;25.90;72.90
45969;DHT22;31676;40.444;-3.668;2023-04-03T06:20:02;25.90;72.90
45969;DHT22;31676;40.444;-3.668;2023-04-03T06:22:29;25.90;72.90
45969;DHT22;31676;40.444;-3.668;2023-04-03T06:24:55;25.90;72.90
45969;DHT22;31676;40.444;-3.668;2023-04-03T06:27:21;25.90;72.90
45969;DHT22;31676;40.444;-3.668;2023-04-03T06:29:47;25.90;72.80
45969;DHT22;31676;40.444;-3.668;2023-04-03T06:32:14;25.90;72.80
45969;DHT22;31676;40.444;-3.668;2023-04-03T06:34:40;25.90;72.90
45969;DHT22;31676;40.444;-3.668;2023-04-03T06:37:10;25.90;72.90
45969;DHT22;31676;40.444;-3.668;2023-04-03T06:39:36;25.90;72.90
45969;DHT22;31676;40.444;-3.668;2023-04-03T06:42:02;25.90;72.80
45969;DHT22;31676;40.444;-3.668;2023-04-03T06:44:27;25.90;72.90
45969;DHT22;31676;40.444;-3.668;2023-04-03T06:46:53;25.90;72.80
45969;DHT22;31676;40.444;-3.668;2023-04-03T06:49:19;25.90;72.80
45969;DHT22;31676;40.444;-3.668;2023-04-03T06:51:45;25.90;72.90
45969;DHT22;31676;40.444;-3.668;2023-04-03T06:54:10;25.80;72.80
45969;DHT22;31676;40.444;-3.668;2023-04-03T06:56:36;25.80;72.70
45969;DHT22;31676;40.444;-3.668;2023-04-03T06:59:02;25.80;72.70
45969;DHT22;31676;40.444;-3.668;2023-04-03T07:01:28;25.80;72.80
45969;DHT22;31676;40.444;-3.668;2023-04-03T07:03:55;25.80;72.70
45969;DHT22;31676;40.444;-3.668;2023-04-03T07:06:21;25.80;72.80
45969;DHT22;31676;40.444;-3.668;2023-04-03T07:08:47;25.80;72.70
45969;DHT22;31676;40.444;-3.668;2023-04-03T07:11:16;25.80;72.70
45969;DHT22;31676;40.444;-3.668;2023-04-03T07:13:42;25.80;72.70
45969;DHT22;31676;40.444;-3.668;2023-04-03T07:16:08;25.80;72.70
45969;DHT22;31676;40.444;-3.668;2023-04-03T07:18:34;25.80;73.40
45969;DHT22;31676;40.444;-3.668;2023-04-03T07:21:00;25.80;72.80
45969;DHT22;31676;40.444;-3.668;2023-04-03T07:23:26;25.80;72.70
45969;DHT22;31676;40.444;-3.668;2023-04-03T07:25:52;25.80;72.70
45969;DHT22;31676;40.444;-3.668;2023-04-03T07:28:19;25.80;72.70
45969;DHT22;31676;40.444;-3.668;2023-04-03T07:30:46;25.80;72.70
45969;DHT22;31676;40.444;-3.668;2023-04-03T07:33:12;25.70;72.70
45969;DHT22;31676;40.444;-3.668;2023-04-03T07:35:38;25.70;72.70
45969;DHT22;31676;40.444;-3.668;2023-04-03T07:38:04;25.70;72.70
45969;DHT22;31676;40.444;-3.668;2023-04-03T07:40:31;25.80;72.70
45969;DHT22;31676;40.444;-3.668;2023-04-03T07:42:56;25.70;72.70
45969;DHT22;31676;40.444;-3.668;2023-04-03T07:45:23;25.70;72.70
45969;DHT22;31676;40.444;-3.668;2023-04-03T07:47:49;25.70;72.70
45969;DHT22;31676;40.444;-3.668;2023-04-03T07:50:15;25.70;72.70
45969;DHT22;31676;40.444;-3.668;2023-04-03T07:52:42;25.70;72.70
45969;DHT22;31676;40.444;-3.668;2023-04-03T07:55:08;25.60;72.70
45969;DHT22;31676;40.444;-3.668;2023-04-03T07:57:33;25.60;72.70
45969;DHT22;31676;40.444;-3.668;2023-04-03T07:59:59;25.60;72.60
45969;DHT22;31676;40.444;-3.668;2023-04-03T08:02:25;25.60;72.60
45969;DHT22;31676;40.444;-3.668;2023-04-03T08:04:51;25.60;72.60
45969;DHT22;31676;40.444;-3.668;2023-04-03T08:07:16;25.60;72.60
45969;DHT22;31676;40.444;-3.668;2023-04-03T08:09:42;25.60;72.60
45969;DHT22;31676;40.444;-3.668;2023-04-03T08:12:07;25.60;72.60
45969;DHT22;31676;40.444;-3.668;2023-04-03T08:14:36;25.60;72.70
45969;DHT22;31676;40.444;-3.668;2023-04-03T08:17:02;25.60;72.60
45969;DHT22;31676;40.444;-3.668;2023-04-03T08:19:29;25.60;72.60
45969;DHT22;31676;40.444;-3.668;2023-04-03T08:21:55;25.60;72.60
45969;DHT22;31676;40.444;-3.668;2023-04-03T08:24:22;25.60;72.60
45969;DHT22;31676;40.444;-3.668;2023-04-03T08:26:47;25.60;72.60
45969;DHT22;31676;40.444;-3.668;2023-04-03T08:29:13;25.60;72.60
45969;DHT22;31676;40.444;-3.668;2023-04-03T08:31:39;25.60;72.60
45969;DHT22;31676;40.444;-3.668;2023-04-03T08:34:04;25.60;72.60
45969;DHT22;31676;40.444;-3.668;2023-04-03T08:36:30;25.60;72.60
45969;DHT22;31676;40.444;-3.668;2023-04-03T08:38:56;25.60;72.60
45969;DHT22;31676;40.444;-3.668;2023-04-03T08:41:32;25.60;72.60
45969;DHT22;31676;40.444;-3.668;2023-04-03T08:49:26;25.60;72.60
45969;DHT22;31676;40.444;-3.668;2023-04-03T08:51:53;25.60;72.60
45969;DHT22;31676;40.444;-3.668;2023-04-03T08:55:22;25.60;72.60
45969;DHT22;31676;40.444;-3.668;2023-04-03T08:57:16;25.60;72.60
45969;DHT22;31676;40.444;-3.668;2023-04-03T08:59:42;25.60;72.60
45969;DHT22;31676;40.444;-3.668;2023-04-03T09:05:08;25.60;72.60
45969;DHT22;31676;40.444;-3.668;2023-04-03T09:07:39;25.60;72.60
45969;DHT22;31676;40.444;-3.668;2023-04-03T09:10:08;25.60;72.60
45969;DHT22;31676;40.444;-3.668;2023-04-03T09:12:39;25.60;72.60
45969;DHT22;31676;40.444;-3.668;2023-04-03T09:15:24;25.60;73.20
45969;DHT22;31676;40.444;-3.668;2023-04-03T09:22:45;25.60;72.60
45969;DHT22;31676;40.444;-3.668;2023-04-03T09:25:19;25.60;72.60
45969;DHT22;31676;40.444;-3.668;2023-04-03T09:27:46;25.60;72.60
45969;DHT22;31676;40.444;-3.668;2023-04-03T09:30:15;25.60;72.60
45969;DHT22;31676;40.444;-3.668;2023-04-03T09:32:43;25.60;72.60
45969;DHT22;31676;40.444;-3.668;2023-04-03T09:35:28;25.60;72.50
45969;DHT22;31676;40.444;-3.668;2023-04-03T09:38:00;25.60;72.60
45969;DHT22;31676;40.444;-3.668;2023-04-03T09:42:54;25.60;72.60
45969;DHT22;31676;40.444;-3.668;2023-04-03T09:45:25;25.60;72.60
45969;DHT22;31676;40.444;-3.668;2023-04-03T09:50:33;25.50;72.50
45969;DHT22;31676;40.444;-3.668;2023-04-03T09:53:01;25.50;72.50
45969;DHT22;31676;40.444;-3.668;2023-04-03T09:55:29;25.50;72.50
45969;DHT22;31676;40.444;-3.668;2023-04-03T09:58:01;25.50;72.50
45969;DHT22;31676;40.444;-3.668;2023-04-03T10:02:56;25.50;72.50
45969;DHT22;31676;40.444;-3.668;2023-04-03T10:05:36;25.50;72.50
45969;DHT22;31676;40.444;-3.668;2023-04-03T10:08:19;25.50;72.60
45969;DHT22;31676;40.444;-3.668;2023-04-03T10:10:46;25.50;72.50
45969;DHT22;31676;40.444;-3.668;2023-04-03T10:13:19;25.50;72.50
45969;DHT22;31676;40.444;-3.668;2023-04-03T10:15:48;25.60;72.60
45969;DHT22;31676;40.444;-3.668;2023-04-03T10:21:02;25.50;72.50
45969;DHT22;31676;40.444;-3.668;2023-04-03T10:23:33;25.50;72.50
45969;DHT22;31676;40.444;-3.668;2023-04-03T10:33:43;25.60;72.60
45969;DHT22;31676;40.444;-3.668;2023-04-03T10:36:23;25.60;72.60
45969;DHT22;31676;40.444;-3.668;2023-04-03T10:38:53;25.60;72.60
45969;DHT22;31676;40.444;-3.668;2023-04-03T10:46:34;25.60;72.60
45969;DHT22;31676;40.444;-3.668;2023-04-03T10:56:57;25.60;72.50
45969;DHT22;31676;40.444;-3.668;2023-04-03T10:59:31;25.60;72.50
45969;DHT22;31676;40.444;-3.668;2023-04-03T11:02:11;25.60;72.50
45969;DHT22;31676;40.444;-3.668;2023-04-03T11:04:40;25.60;72.50
45969;DHT22;31676;40.444;-3.668;2023-04-03T11:07:18;25.60;72.50
45969;DHT22;31676;40.444;-3.668;2023-04-03T11:09:48;25.60;72.50
45969;DHT22;31676;40.444;-3.668;2023-04-03T11:12:38;25.60;72.50
45969;DHT22;31676;40.444;-3.668;2023-04-03T11:15:01;25.60;72.50
45969;DHT22;31676;40.444;-3.668;2023-04-03T11:17:30;25.60;72.50
45969;DHT22;31676;40.444;-3.668;2023-04-03T11:22:30;25.60;72.50
45969;DHT22;31676;40.444;-3.668;2023-04-03T11:27:42;25.60;72.50
45969;DHT22;31676;40.444;-3.668;2023-04-03T11:30:12;25.60;72.50
45969;DHT22;31676;40.444;-3.668;2023-04-03T11:35:17;25.60;72.50
45969;DHT22;31676;40.444;-3.668;2023-04-03T11:37:45;25.60;72.40
45969;DHT22;31676;40.444;-3.668;2023-04-03T11:40:31;25.60;72.50
45969;DHT22;31676;40.444;-3.668;2023-04-03T12:00:56;25.60;72.40
45969;DHT22;31676;40.444;-3.668;2023-04-03T12:05:48;25.60;72.40
45969;DHT22;31676;40.444;-3.668;2023-04-03T12:16:02;25.60;72.40
45969;DHT22;31676;40.444;-3.668;2023-04-03T12:18:42;25.70;72.40
45969;DHT22;31676;40.444;-3.668;2023-04-03T12:21:09;25.60;72.40
45969;DHT22;31676;40.444;-3.668;2023-04-03T12:23:55;25.70;72.40
45969;DHT22;31676;40.444;-3.668;2023-04-03T12:26:25;25.70;72.40
45969;DHT22;31676;40.444;-3.668;2023-04-03T12:28:53;25.60;72.40
45969;DHT22;31676;40.444;-3.668;2023-04-03T12:31:19;25.70;72.40
45969;DHT22;31676;40.444;-3.668;2023-04-03T12:33:57;25.70;72.40
45969;DHT22;31676;40.444;-3.668;2023-04-03T12:36:39;25.70;72.40
45969;DHT22;31676;40.444;-3.668;2023-04-03T12:39:13;25.70;72.50
45969;DHT22;31676;40.444;-3.668;2023-04-03T12:41:50;25.70;72.40
45969;DHT22;31676;40.444;-3.668;2023-04-03T12:46:49;25.70;72.40
45969;DHT22;31676;40.444;-3.668;2023-04-03T12:54:45;25.70;72.40
45969;DHT22;31676;40.444;-3.668;2023-04-03T12:59:40;25.70;72.40
45969;DHT22;31676;40.444;-3.668;2023-04-03T13:05:07;25.70;72.40
45969;DHT22;31676;40.444;-3.668;2023-04-03T13:07:34;25.70;72.40
45969;DHT22;31676;40.444;-3.668;2023-04-03T13:15:14;25.80;72.50
45969;DHT22;31676;40.444;-3.668;2023-04-03T13:17:42;25.70;72.30
45969;DHT22;31676;40.444;-3.668;2023-04-03T13:20:21;25.80;72.40
45969;DHT22;31676;40.444;-3.668;2023-04-03T13:22:49;25.80;72.40
45969;DHT22;31676;40.444;-3.668;2023-04-03T13:25:16;25.80;72.40
45969;DHT22;31676;40.444;-3.668;2023-04-03T13:27:43;25.80;72.40
45969;DHT22;31676;40.444;-3.668;2023-04-03T13:33:21;25.80;72.40
45969;DHT22;31676;40.444;-3.668;2023-04-03T13:35:47;25.80;73.10
45969;DHT22;31676;40.444;-3.668;2023-04-03T13:38:21;25.80;72.40
45969;DHT22;31676;40.444;-3.668;2023-04-03T13:40:49;25.80;72.40
45969;DHT22;31676;40.444;-3.668;2023-04-03T13:43:23;25.80;72.40
45969;DHT22;31676;40.444;-3.668;2023-04-03T13:48:38;25.80;72.30
45969;DHT22;31676;40.444;-3.668;2023-04-03T13:53:42;25.80;72.40
45969;DHT22;31676;40.444;-3.668;2023-04-03T13:56:09;25.80;72.30
45969;DHT22;31676;40.444;-3.668;2023-04-03T13:58:35;25.80;72.30
45969;DHT22;31676;40.444;-3.668;2023-04-03T14:06:06;25.80;72.30
45969;DHT22;31676;40.444;-3.668;2023-04-03T14:08:32;25.80;72.30
45969;DHT22;31676;40.444;-3.668;2023-04-03T14:10:58;25.90;72.40
45969;DHT22;31676;40.444;-3.668;2023-04-03T14:13:24;25.90;72.40
45969;DHT22;31676;40.444;-3.668;2023-04-03T14:15:49;25.90;72.40
45969;DHT22;31676;40.444;-3.668;2023-04-03T14:18:18;25.90;72.40
45969;DHT22;31676;40.444;-3.668;2023-04-03T14:20:48;25.90;72.40
45969;DHT22;31676;40.444;-3.668;2023-04-03T14:23:14;25.90;72.40
45969;DHT22;31676;40.444;-3.668;2023-04-03T14:25:40;25.90;72.40
45969;DHT22;31676;40.444;-3.668;2023-04-03T14:28:27;25.90;72.40
45969;DHT22;31676;40.444;-3.668;2023-04-03T14:30:52;25.90;72.40
45969;DHT22;31676;40.444;-3.668;2023-04-03T14:33:20;25.90;72.40
45969;DHT22;31676;40.444;-3.668;2023-04-03T14:35:46;25.90;72.40
45969;DHT22;31676;40.444;-3.668;2023-04-03T14:38:26;25.90;72.40
45969;DHT22;31676;40.444;-3.668;2023-04-03T14:40:52;25.90;72.40
45969;DHT22;31676;40.444;-3.668;2023-04-03T14:43:18;25.90;72.40
45969;DHT22;31676;40.444;-3.668;2023-04-03T14:45:44;25.90;72.40
45969;DHT22;31676;40.444;-3.668;2023-04-03T14:48:12;25.90;72.40
45969;DHT22;31676;40.444;-3.668;2023-04-03T14:50:41;25.90;72.40
45969;DHT22;31676;40.444;-3.668;2023-04-03T14:53:07;25.90;72.40
45969;DHT22;31676;40.444;-3.668;2023-04-03T14:55:33;25.90;72.40
45969;DHT22;31676;40.444;-3.668;2023-04-03T14:57:58;25.90;72.40
45969;DHT22;31676;40.444;-3.668;2023-04-03T15:00:24;25.90;72.40
45969;DHT22;31676;40.444;-3.668;2023-04-03T15:02:50;25.90;72.40
45969;DHT22;31676;40.444;-3.668;2023-04-03T15:05:16;25.90;72.40
45969;DHT22;31676;40.444;-3.668;2023-04-03T15:07:43;25.90;72.40
45969;DHT22;31676;40.444;-3.668;2023-04-03T15:12:45;25.90;72.40
45969;DHT22;31676;40.444;-3.668;2023-04-03T15:15:11;25.90;72.40
45969;DHT22;31676;40.444;-3.668;2023-04-03T15:17:37;25.90;72.40
45969;DHT22;31676;40.444;-3.668;2023-04-03T15:20:03;25.90;72.40
45969;DHT22;31676;40.444;-3.668;2023-04-03T15:22:31;25.90;72.40
45969;DHT22;31676;40.444;-3.668;2023-04-03T15:24:56;25.90;72.40
45969;DHT22;31676;40.444;-3.668;2023-04-03T15:27:22;25.90;72.40
45969;DHT22;31676;40.444;-3.668;2023-04-03T15:29:48;25.90;72.40
45969;DHT22;31676;40.444;-3.668;2023-04-03T15:32:13;25.90;72.40
45969;DHT22;31676;40.444;-3.668;2023-04-03T15:34:39;25.90;72.40
45969;DHT22;31676;40.444;-3.668;2023-04-03T15:37:05;25.90;72.40
45969;DHT22;31676;40.444;-3.668;2023-04-03T15:39:31;25.90;72.40
45969;DHT22;31676;40.444;-3.668;2023-04-03T15:41:57;25.90;72.40
45969;DHT22;31676;40.444;-3.668;2023-04-03T15:44:25;25.90;72.40
45969;DHT22;31676;40.444;-3.668;2023-04-03T15:46:50;25.90;72.40
45969;DHT22;31676;40.444;-3.668;2023-04-03T15:49:17;25.90;72.40
45969;DHT22;31676;40.444;-3.668;2023-04-03T15:51:43;25.90;72.40
45969;DHT22;31676;40.444;-3.668;2023-04-03T15:54:08;25.90;72.40
45969;DHT22;31676;40.444;-3.668;2023-04-03T15:56:34;25.90;72.40
45969;DHT22;31676;40.444;-3.668;2023-04-03T15:59:00;25.90;72.40
45969;DHT22;31676;40.444;-3.668;2023-04-03T16:01:26;25.90;72.40
45969;DHT22;31676;40.444;-3.668;2023-04-03T16:03:52;25.90;72.40
45969;DHT22;31676;40.444;-3.668;2023-04-03T16:06:18;25.90;72.40
45969;DHT22;31676;40.444;-3.668;2023-04-03T16:08:44;25.90;72.40
45969;DHT22;31676;40.444;-3.668;2023-04-03T16:11:11;25.90;72.40
45969;DHT22;31676;40.444;-3.668;2023-04-03T16:13:37;25.90;72.40
45969;DHT22;31676;40.444;-3.668;2023-04-03T16:16:02;25.90;72.40
45969;DHT22;31676;40.444;-3.668;2023-04-03T16:18:29;25.90;72.40
45969;DHT22;31676;40.444;-3.668;2023-04-03T16:20:55;25.90;72.40
45969;DHT22;31676;40.444;-3.668;2023-04-03T16:23:21;25.90;72.30
45969;DHT22;31676;40.444;-3.668;2023-04-03T16:25:47;25.90;72.30
45969;DHT22;31676;40.444;-3.668;2023-04-03T16:28:13;25.90;72.40
45969;DHT22;31676;40.444;-3.668;2023-04-03T16:30:40;25.90;72.30
45969;DHT22;31676;40.444;-3.668;2023-04-03T16:33:06;25.90;72.30
45969;DHT22;31676;40.444;-3.668;2023-04-03T16:35:32;25.90;72.30
45969;DHT22;31676;40.444;-3.668;2023-04-03T16:37:57;25.90;72.30
45969;DHT22;31676;40.444;-3.668;2023-04-03T16:40:23;25.90;72.30
45969;DHT22;31676;40.444;-3.668;2023-04-03T16:42:49;25.90;72.30
45969;DHT22;31676;40.444;-3.668;2023-04-03T16:45:14;26.00;72.40
45969;DHT22;31676;40.444;-3.668;2023-04-03T16:47:40;25.90;72.30
45969;DHT22;31676;40.444;-3.668;2023-04-03T16:50:06;25.90;72.30
45969;DHT22;31676;40.444;-3.668;2023-04-03T16:52:32;26.00;72.40
45969;DHT22;31676;40.444;-3.668;2023-04-03T16:54:58;26.00;72.40
45969;DHT22;31676;40.444;-3.668;2023-04-03T16:57:24;25.90;72.30
45969;DHT22;31676;40.444;-3.668;2023-04-03T16:59:50;25.90;72.30
45969;DHT22;31676;40.444;-3.668;2023-04-03T17:02:16;25.90;72.30
45969;DHT22;31676;40.444;-3.668;2023-04-03T17:04:41;26.00;72.30
45969;DHT22;31676;40.444;-3.668;2023-04-03T17:07:07;26.00;72.30
45969;DHT22;31676;40.444;-3.668;2023-04-03T17:09:33;26.00;72.30
45969;DHT22;31676;40.444;-3.668;2023-04-03T17:11:59;26.00;72.40
45969;DHT22;31676;40.444;-3.668;2023-04-03T17:14:24;26.00;72.30
45969;DHT22;31676;40.444;-3.668;2023-04-03T17:16:50;26.00;72.40